Terminal Aerodrome Forecast
Issued by NWS Mt. Holly, NJ

Home | Current Version | Previous Version | Text Only | Print | Product List | Glossary On
Versions: 1 2 3 4 5 6 7 8 9 10 11 12 13 14 15 16 17 18 19 20 21 22 23 24 25 26 27 28
000
FTUS41 KPHI 272002 AAB
TAFACY
TAF AMD
KACY 272002Z 2720/2818 14008KT 6SM HZ BKN006
     FM272030 16010KT P6SM SCT040
     FM280400 20005KT P6SM BKN030 PROB30 2807/2811 3SM -SHRA BR
      BKN015
     FM281300 30005KT P6SM SCT040=

USA.gov is the U.S. government's official web portal to all federal, state and local government web resources and services.